Flight Track Log - Related Links

Times and Time Zones

All times are in EDT time to prevent confusion due to time zone crossing. See the CTL22 flight status page for this flight to view local times or setup timezone preferences in your user account.

Time Position Orientation Groundspeed Altitude Reporting Facility
EDT Latitude Longitude Course Direction KTS MPH feet Rate Location/Type
Fri 09:43:37 PM 41.5606 -81.6847 350° North 127 146 2,300  Level Cleveland Center
Fri 09:44:25 PM 41.5917 -81.7047 334° Northwest 142 163 3,100 991 Climbing Cleveland Center
Fri 09:45:26 PM 41.6250 -81.7247 336° Northwest 134 154 4,100 884 Climbing Cleveland Center
Fri 09:46:00 PM 41.6456 -81.7364 337° Northwest 139 160 4,500 830 Climbing Cleveland Center
Fri 09:47:00 PM 41.6789 -81.7536 339° North 139 160 5,400 800 Climbing Cleveland Center
Fri 09:48:00 PM 41.7056 -81.7903 314° West 144 166 6,100 350 Climbing Cleveland Center
Fri 09:49:00 PM 41.7300 -81.8492 299° West 151 174 6,100  Level Cleveland Center
Fri 09:50:00 PM 41.7500 -81.9081 294° West 173 199 6,100  Level Cleveland Center
Fri 09:51:00 PM 41.7722 -81.9669 297° West 173 199 6,100  Level Cleveland Center
Fri 09:51:59 PM 41.7944 -82.0258 297° West 179 206 6,100  Level Cleveland Center
Fri 09:53:00 PM 41.8167 -82.0875 315° West 179 206 6,100  Level Cleveland Center
Fri 09:54:00 PM 41.8367 -82.1467 294° West 179 206 6,100  Level Cleveland Center
Fri 09:55:00 PM 41.8547 -82.2000 294° West 179 206 6,100  Level Cleveland Center
Fri 09:56:00 PM 41.8769 -82.2592 297° West 179 206 6,100  Level Cleveland Center
Fri 09:57:00 PM 41.9008 -82.3211 297° West 179 206 6,100  Level Cleveland Center
Fri 09:58:00 PM 41.9250 -82.3778 300° West 179 206 6,100  Level Cleveland Center
Fri 09:59:00 PM 41.9450 -82.4397 293° West 179 206 6,100  Level Cleveland Center
Fri 10:00:00 PM 41.9689 -82.4989 299° West 179 206 6,100  Level Cleveland Center
Fri 10:01:00 PM 41.9931 -82.5583 299° West 179 206 6,100  Level Cleveland Center
Fri 10:02:00 PM 42.0192 -82.6150 302° West 179 206 6,100  Level Cleveland Center
Fri 10:03:00 PM 42.0431 -82.6775 297° West 179 206 6,100  Level Cleveland Center
Fri 10:04:00 PM 42.0689 -82.7397 299° West 179 206 6,100  Level Cleveland Center
Fri 10:05:00 PM 42.0928 -82.7994 298° West 179 206 6,100  Level Cleveland Center
Fri 10:06:00 PM 42.1167 -82.8617 297° West 179 206 6,100  Level Cleveland Center
Fri 10:07:22 PM 42.1500 -82.9581 295° West 187 215 6,100  Level Cleveland Center
Fri 10:08:23 PM 42.1675 -83.0206 291° West 185 213 6,100  Level Cleveland Center
Fri 10:09:23 PM 42.1869 -83.0886 291° West 187 215 6,100  Level Cleveland Center
Fri 10:10:24 PM 42.2106 -83.1539 296° West 184 212 6,100  Level Cleveland Center
Fri 10:11:25 PM 42.2319 -83.2136 296° West 183 211 6,100  Level Cleveland Center
Fri 10:12:26 PM 42.2514 -83.2789 292° West 183 211 6,100  Level Cleveland Center
Fri 10:13:26 PM 42.2708 -83.3444 292° West 183 211 6,100  Level Cleveland Center
Fri 10:14:27 PM 42.2922 -83.4042 296° West 179 206 6,100  Level Cleveland Center
Fri 10:15:34 PM 42.3092 -83.4697 289° West 176 203 6,100  Level Cleveland Center
Fri 10:16:29 PM 42.3244 -83.5264 290° West 171 197 6,100  Level Cleveland Center
Fri 10:17:30 PM 42.3439 -83.5836 295° West 172 198 6,100  Level Cleveland Center
Fri 10:18:30 PM 42.3631 -83.6464 292° West 176 203 6,100  Level Cleveland Center
Fri 10:20:11 PM 42.3931 -83.7531 291° West 173 199 6,100  Level Chicago Center
Fri 10:21:13 PM 42.4108 -83.8144 291° West 174 200 6,100  Level Chicago Center
Fri 10:22:14 PM 42.4300 -83.8753 293° West 175 201 6,100  Level Chicago Center
Fri 10:23:15 PM 42.4483 -83.9369 292° West 176 203 6,100  Level Chicago Center
Fri 10:24:17 PM 42.4644 -83.9994 289° West 177 204 6,100  Level Chicago Center
Fri 10:25:18 PM 42.4819 -84.0608 291° West 174 200 6,100  Level Chicago Center
Fri 10:26:19 PM 42.5014 -84.1233 293° West 178 205 6,100  Level Chicago Center
Fri 10:27:20 PM 42.5211 -84.1858 293° West 181 208 6,100  Level Chicago Center
Fri 10:28:22 PM 42.5394 -84.2503 291° West 183 211 6,100  Level Chicago Center
Fri 10:29:23 PM 42.5603 -84.3133 294° West 183 211 6,100  Level Chicago Center
Fri 10:30:24 PM 42.5867 -84.3736 301° West 186 214 6,100  Level Chicago Center
Fri 10:31:25 PM 42.6150 -84.4481 297° West 187 215 6,100  Level Chicago Center
Fri 10:32:26 PM 42.6325 -84.5114 291° West 183 211 6,100  Level Chicago Center
Fri 10:33:28 PM 42.6486 -84.5772 288° West 184 212 6,100  Level Chicago Center
Fri 10:34:29 PM 42.6664 -84.6417 291° West 183 211 6,100  Level Chicago Center
Fri 10:35:30 PM 42.6833 -84.7056 290° West 182 209 6,100  Level Chicago Center
Fri 10:36:32 PM 42.6997 -84.7697 289° West 180 207 6,100  Level Chicago Center
Fri 10:37:33 PM 42.7153 -84.8344 288° West 180 207 6,100  Level Chicago Center
Fri 10:38:34 PM 42.7322 -84.8983 290° West 179 206 6,100  Level Chicago Center
Fri 10:39:35 PM 42.7481 -84.9642 288° West 184 212 6,100  Level Chicago Center
Fri 10:40:37 PM 42.7644 -85.0275 289° West 180 207 6,100 -634 Level Chicago Center
Fri 10:41:38 PM 42.7825 -85.1136 286° West 193 222 4,800 -885 Descending Chicago Center
Fri 10:42:39 PM 42.7994 -85.1861 288° West 202 232 4,300 -492 Descending Chicago Center
Fri 10:43:40 PM 42.8153 -85.2531 288° West 192 221 3,800 -585 Descending Chicago Center
Fri 10:44:42 PM 42.8322 -85.3233 288° West 194 223 3,100 -732 Descending Chicago Center
Fri 10:45:43 PM 42.8478 -85.3908 287° West 190 219 2,300 -738 Descending Chicago Center
Fri 10:46:44 PM 42.8664 -85.4569 291° West 188 216 1,600 -590 Descending Chicago Center
Fri 10:47:45 PM 42.8803 -85.5083 290° West 167 192 1,100 -492 Descending Chicago Center
Fri 10:49:00 PM 42.8667 -85.5167 270° West  Level FlightAware Approximate

Login

Don't have an account? Register now (free) for customized features, flight alerts, and more!